Phoenix, Arizona
Traffic Map
Current Weather Conditions
Phoenix, Arizona
Clear
Clear
71°
Feels Like: 71°
Wind Chill: 71° Ceiling: Unl
Heat Index: 71° Visibility: 10mi
Dew Point: 25° Wind: 7mph
Humidity: 18% Direction: 90° (E)
Pressure: 29.74in Gusts: 0mph
Raw Report DataKPHX 160651Z 09006KT 10SM CLR 22/M04 A2974 RMK AO2 SLP055 T02171039 403220156
Traffic Incident Summary
Active as of:
Severity:
Category:
InformationThere was an issue retrieving the traffic information for this location. Please try a different location or try again shortly.
Advertisements
At Last! Intellicast now available for iPhone and Android